Time;durP1;ratioP1;P1;durP2;ratioP2;P2;SDS_P1;SDS_P2;PMS_P1;PMS_P2;Temp;Humidity;BMP_temperature;BMP_pressure;BME280_temperature;BME280_humidity;BME280_pressure;Samples;Min_cycle;Max_cycle;Signal;HPM_P1;HPM_P2
2022/05/21 00:00:20;;;;;;;0.60;0.20;;;;;;;24.47;37.07;101058.25;5053140;28;20056;-44
2022/05/21 00:02:46;;;;;;;0.70;0.30;;;;;;;24.48;36.81;101055.38;5070353;28;20044;-56
2022/05/21 00:05:13;;;;;;;0.85;0.40;;;;;;;24.49;36.91;101056.19;5067786;28;20024;-43
2022/05/21 00:07:39;;;;;;;0.77;0.30;;;;;;;24.49;36.82;101053.53;5068877;28;20075;-53
2022/05/21 00:10:07;;;;;;;2.13;0.30;;;;;;;24.49;36.61;101045.53;5070384;28;20052;-50
2022/05/21 00:12:33;;;;;;;1.23;0.30;;;;;;;24.48;37.04;101034.06;5066782;28;20396;-56
2022/05/21 00:15:00;;;;;;;0.90;0.30;;;;;;;24.50;36.95;101033.03;5062231;28;20411;-53
2022/05/21 00:17:25;;;;;;;0.82;0.30;;;;;;;24.50;36.83;101030.38;5065626;28;20871;-38
2022/05/21 00:19:51;;;;;;;0.95;0.30;;;;;;;24.50;37.07;101025.06;5057790;28;20112;-42
2022/05/21 00:22:16;;;;;;;0.65;0.30;;;;;;;24.49;36.92;101024.22;5068791;28;20111;-52
2022/05/21 00:24:42;;;;;;;0.60;0.25;;;;;;;24.48;37.00;101006.63;5066336;28;20035;-49
2022/05/21 00:27:07;;;;;;;1.08;0.30;;;;;;;24.49;36.98;101018.91;5069684;28;20032;-56
2022/05/21 00:29:33;;;;;;;1.08;0.30;;;;;;;24.49;37.41;101002.94;5068150;28;20028;-51
2022/05/21 00:31:59;;;;;;;2.85;0.30;;;;;;;24.50;37.07;100998.41;5067422;28;20037;-51
2022/05/21 00:34:25;;;;;;;0.73;0.30;;;;;;;24.48;36.89;100990.66;5064515;28;20500;-49
2022/05/21 00:36:51;;;;;;;4.45;0.40;;;;;;;24.47;36.76;100994.34;5067674;28;20359;-51
2022/05/21 00:39:16;;;;;;;1.73;0.40;;;;;;;24.46;36.83;100984.72;5068597;28;20641;-46
2022/05/21 00:41:43;;;;;;;1.30;0.30;;;;;;;24.46;36.50;100982.06;5070678;28;20024;-49
2022/05/21 00:44:09;;;;;;;0.95;0.30;;;;;;;24.45;36.87;100977.78;5068201;28;20124;-46
2022/05/21 00:46:40;;;;;;;0.63;0.20;;;;;;;24.44;36.79;100976.16;5066730;28;20470;-45
2022/05/21 00:49:10;;;;;;;0.50;0.20;;;;;;;24.44;36.58;100974.28;5068483;28;20031;-44
2022/05/21 00:51:42;;;;;;;1.58;0.30;;;;;;;24.45;36.55;100977.78;5068566;28;20040;-56
2022/05/21 00:54:09;;;;;;;0.73;0.43;;;;;;;24.44;36.42;100960.97;5067817;28;20751;-40
2022/05/21 00:56:41;;;;;;;0.80;0.30;;;;;;;24.45;36.68;100975.13;5066470;28;20117;-44
2022/05/21 01:01:55;;;;;;;0.88;0.38;;;;;;;24.43;36.64;100978.00;5066325;28;20075;-44
2022/05/21 01:04:22;;;;;;;0.70;0.30;;;;;;;24.45;36.72;100983.09;5067977;28;20020;-43
2022/05/21 01:06:48;;;;;;;1.35;0.38;;;;;;;24.44;36.66;100978.81;5069054;28;20043;-56
2022/05/21 01:09:13;;;;;;;2.10;0.43;;;;;;;24.44;36.42;100957.50;5066939;28;20462;-43
2022/05/21 01:11:39;;;;;;;0.70;0.20;;;;;;;24.42;36.52;100947.06;5061773;28;20056;-44
2022/05/21 01:14:08;;;;;;;0.75;0.30;;;;;;;24.42;36.64;100948.91;5068423;28;20347;-47
2022/05/21 01:16:34;;;;;;;0.80;0.50;;;;;;;24.39;36.61;100941.38;5067911;28;20075;-46
2022/05/21 01:19:05;;;;;;;2.95;0.30;;;;;;;24.38;36.39;100945.09;5066332;28;20122;-50
2022/05/21 01:21:30;;;;;;;1.27;0.30;;;;;;;24.37;36.50;100946.94;5065359;28;20036;-48
2022/05/21 01:23:56;;;;;;;0.95;0.40;;;;;;;24.38;36.67;100958.41;5065695;28;20490;-41
2022/05/21 01:26:22;;;;;;;2.03;0.40;;;;;;;24.38;36.60;100947.75;5068731;28;20036;-43
2022/05/21 01:28:49;;;;;;;0.80;0.40;;;;;;;24.37;36.59;100951.44;5067387;28;20024;-46
2022/05/21 01:31:14;;;;;;;1.30;0.57;;;;;;;24.36;36.52;100945.31;5057738;28;20394;-49
2022/05/21 01:33:44;;;;;;;1.70;0.30;;;;;;;24.36;36.15;100931.19;5063564;28;20136;-57
2022/05/21 01:36:10;;;;;;;0.70;0.30;;;;;;;24.36;35.88;100920.53;5068271;28;20024;-43
2022/05/21 01:38:37;;;;;;;1.38;0.30;;;;;;;24.36;35.67;100934.66;5065259;28;20032;-54
2022/05/21 01:41:04;;;;;;;0.40;0.20;;;;;;;24.36;35.67;100941.81;5065661;28;20032;-46
2022/05/21 01:46:16;;;;;;;1.00;0.30;;;;;;;24.36;35.61;100942.63;5068907;28;20090;-52
2022/05/21 01:48:42;;;;;;;0.70;0.20;;;;;;;24.36;35.12;100941.81;5054991;28;20036;-48
2022/05/21 01:51:09;;;;;;;0.47;0.22;;;;;;;24.36;35.21;100942.63;5053783;28;20032;-43
2022/05/21 01:53:37;;;;;;;0.70;0.30;;;;;;;24.37;35.17;100943.44;5065779;28;20025;-48
2022/05/21 01:56:03;;;;;;;1.27;0.25;;;;;;;24.38;34.72;100942.41;5067638;28;20454;-49
2022/05/21 01:58:29;;;;;;;1.00;0.20;;;;;;;24.35;34.62;100948.19;5067551;28;20032;-46
2022/05/21 02:00:58;;;;;;;1.35;0.20;;;;;;;24.36;34.26;100939.16;5067311;28;20051;-41
2022/05/21 02:03:25;;;;;;;0.43;0.30;;;;;;;24.38;34.45;100934.44;5064261;28;20431;-47
2022/05/21 02:05:51;;;;;;;0.90;0.20;;;;;;;24.38;34.47;100937.09;5065553;28;20416;-40
2022/05/21 02:08:17;;;;;;;0.80;0.30;;;;;;;24.38;34.52;100926.44;5067007;28;20029;-51
2022/05/21 02:10:44;;;;;;;0.75;0.20;;;;;;;24.37;34.45;100930.13;5064026;28;20115;-53
2022/05/21 02:13:19;;;;;;;1.08;0.20;;;;;;;24.35;34.55;100938.34;5066246;28;20032;-49
2022/05/21 02:15:45;;;;;;;1.00;0.20;;;;;;;24.36;34.51;100933.84;5067278;28;20106;-44
2022/05/21 02:18:14;;;;;;;0.77;0.30;;;;;;;24.34;34.47;100941.22;5065997;28;20036;-46
2022/05/21 02:20:40;;;;;;;1.08;0.30;;;;;;;24.33;34.36;100936.94;5068796;28;20495;-43
2022/05/21 02:23:06;;;;;;;0.50;0.20;;;;;;;24.33;34.53;100928.97;5066807;28;20024;-49
2022/05/21 02:25:32;;;;;;;1.65;0.30;;;;;;;24.31;34.34;100923.03;5060737;28;20035;-45
2022/05/21 02:27:58;;;;;;;0.60;0.20;;;;;;;24.30;34.62;100926.75;5066287;28;20476;-49
2022/05/21 02:30:23;;;;;;;1.00;0.28;;;;;;;24.28;34.38;100926.16;5066117;28;20040;-50
2022/05/21 02:32:49;;;;;;;1.10;0.30;;;;;;;24.26;34.65;100914.91;5063813;28;20504;-45
2022/05/21 02:35:15;;;;;;;1.30;0.25;;;;;;;24.26;34.67;100921.03;5065563;28;20055;-39
2022/05/21 02:40:26;;;;;;;2.03;0.30;;;;;;;24.24;34.97;100914.28;5059635;28;20090;-53
2022/05/21 02:42:51;;;;;;;0.70;0.28;;;;;;;24.24;35.07;100911.63;5061816;28;20045;-44
2022/05/21 02:45:26;;;;;;;5.68;0.68;;;;;;;24.23;35.21;100896.69;5064003;28;20040;-45
2022/05/21 02:47:53;;;;;;;1.25;0.20;;;;;;;24.22;35.10;100889.72;5048391;28;20043;-50
2022/05/21 02:50:26;;;;;;;2.10;0.20;;;;;;;24.21;35.23;100894.25;5063623;28;20063;-50
2022/05/21 02:52:51;;;;;;;1.63;0.20;;;;;;;24.21;35.79;100891.59;5065781;28;20452;-46
2022/05/21 02:55:18;;;;;;;1.30;0.30;;;;;;;24.21;35.61;100886.25;5066478;28;20518;-49
2022/05/21 02:57:44;;;;;;;4.13;0.73;;;;;;;24.22;35.31;100887.06;5067619;28;20111;-52
2022/05/21 03:00:15;;;;;;;1.17;0.28;;;;;;;24.21;35.32;100875.59;5058925;28;20056;-52
2022/05/21 03:02:40;;;;;;;0.95;0.20;;;;;;;24.22;35.27;100887.06;5055620;28;20032;-48
2022/05/21 03:05:07;;;;;;;1.10;0.20;;;;;;;24.22;35.03;100884.41;5062507;28;20110;-45
2022/05/21 03:07:40;;;;;;;0.60;0.17;;;;;;;24.20;34.96;100886.47;5066421;28;20086;-48
2022/05/21 03:10:22;;;;;;;3.85;0.20;;;;;;;24.21;34.91;100888.09;5065402;28;20443;-52
2022/05/21 03:12:51;;;;;;;1.02;0.20;;;;;;;24.19;34.82;100896.31;5048133;28;20033;-54
2022/05/21 03:15:19;;;;;;;0.93;0.20;;;;;;;24.22;34.63;100911.84;5063967;28;20038;-43
2022/05/21 03:17:46;;;;;;;0.95;0.20;;;;;;;24.22;34.05;100903.84;5067276;28;20039;-52
2022/05/21 03:20:13;;;;;;;0.95;0.20;;;;;;;24.23;34.40;100910.00;5064974;28;20036;-50
2022/05/21 03:22:42;;;;;;;1.08;0.20;;;;;;;24.23;34.00;100917.97;5053779;28;20036;-48
2022/05/21 03:25:09;;;;;;;1.58;0.22;;;;;;;24.23;33.95;100910.81;5057255;28;20036;-41
2022/05/21 03:27:35;;;;;;;0.75;0.10;;;;;;;24.23;33.94;100902.81;5064582;28;20040;-50
2022/05/21 03:30:02;;;;;;;1.70;0.30;;;;;;;24.24;33.79;100908.97;5066863;28;20557;-51
2022/05/21 03:32:28;;;;;;;1.38;0.40;;;;;;;24.24;33.89;100898.31;5064602;28;20039;-49
2022/05/21 03:34:54;;;;;;;1.92;0.30;;;;;;;24.23;33.75;100899.34;5066012;28;20032;-51
2022/05/21 03:37:19;;;;;;;4.20;0.35;;;;;;;24.22;33.87;100906.53;5067676;28;20043;-41
2022/05/21 03:39:45;;;;;;;1.25;0.30;;;;;;;24.23;33.76;100902.00;5067740;28;20021;-55
2022/05/21 03:42:11;;;;;;;2.50;0.30;;;;;;;24.22;33.77;100905.72;5063604;28;20028;-44
2022/05/21 03:44:36;;;;;;;1.08;0.20;;;;;;;24.22;33.53;100895.88;5050918;28;20484;-52
2022/05/21 03:47:03;;;;;;;0.57;0.20;;;;;;;24.21;33.47;100888.91;5064168;28;20020;-48
2022/05/21 03:49:28;;;;;;;1.05;0.20;;;;;;;24.21;33.88;100894.25;5066178;28;20039;-46
2022/05/21 03:51:54;;;;;;;1.75;0.20;;;;;;;24.20;34.04;100897.94;5069080;28;20021;-51
2022/05/21 03:54:20;;;;;;;1.80;0.20;;;;;;;24.19;34.28;100885.66;5068192;28;20670;-47
2022/05/21 03:56:45;;;;;;;0.77;0.20;;;;;;;24.17;34.19;100893.88;5062957;28;20075;-43
2022/05/21 03:59:11;;;;;;;1.88;0.20;;;;;;;24.17;33.97;100893.88;5066155;28;20123;-53
2022/05/21 04:01:37;;;;;;;1.38;0.20;;;;;;;24.16;34.04;100891.44;5065137;28;20108;-52
2022/05/21 04:04:03;;;;;;;0.75;0.20;;;;;;;24.16;34.51;100886.13;5070116;28;20055;-49
2022/05/21 04:06:29;;;;;;;0.52;0.20;;;;;;;24.16;34.65;100891.44;5064183;28;20203;-46
2022/05/21 04:08:55;;;;;;;1.25;0.20;;;;;;;24.16;34.53;100894.91;5068878;28;20036;-38
2022/05/21 04:11:20;;;;;;;1.05;0.20;;;;;;;24.16;34.73;100896.75;5067969;28;20033;-44
2022/05/21 04:13:46;;;;;;;1.00;0.22;;;;;;;24.16;34.51;100902.91;5068358;28;20033;-49
2022/05/21 04:16:11;;;;;;;0.60;0.20;;;;;;;24.16;34.95;100897.56;5068426;28;20471;-44
2022/05/21 04:18:37;;;;;;;0.43;0.13;;;;;;;24.17;34.85;100893.88;5068501;28;20031;-40
2022/05/21 04:21:02;;;;;;;4.45;0.28;;;;;;;24.16;34.78;100886.94;5069089;28;20039;-43
2022/05/21 04:23:28;;;;;;;1.73;0.20;;;;;;;24.16;34.82;100891.44;5068986;28;20104;-53
2022/05/21 04:25:53;;;;;;;0.50;0.10;;;;;;;24.16;34.75;100891.44;5067363;28;21666;-53
2022/05/21 04:28:19;;;;;;;1.20;0.22;;;;;;;24.16;34.69;100897.56;5066876;28;20032;-55
2022/05/21 04:30:45;;;;;;;0.40;0.20;;;;;;;24.15;34.72;100895.94;5064495;28;20044;-51
2022/05/21 04:33:10;;;;;;;0.82;0.30;;;;;;;24.15;34.82;100900.47;5065780;28;20040;-53
2022/05/21 04:38:20;;;;;;;0.40;0.20;;;;;;;24.13;34.83;100892.69;5069851;28;20047;-52
2022/05/21 04:40:47;;;;;;;2.25;0.20;;;;;;;24.12;35.00;100893.72;5066698;28;20468;-45
2022/05/21 04:43:13;;;;;;;0.95;0.20;;;;;;;24.13;35.01;100895.34;5064998;28;20115;-43
2022/05/21 04:45:39;;;;;;;1.92;0.20;;;;;;;24.12;35.12;100891.06;5070399;28;20067;-41
2022/05/21 04:48:07;;;;;;;1.02;0.22;;;;;;;24.13;35.04;100898.03;5070584;28;20035;-44
2022/05/21 04:50:35;;;;;;;2.58;0.20;;;;;;;24.12;35.28;100901.72;5069307;28;20158;-45
2022/05/21 04:53:01;;;;;;;2.35;0.30;;;;;;;24.11;35.04;100901.94;5070354;28;20079;-49
2022/05/21 04:55:26;;;;;;;0.73;0.20;;;;;;;24.11;34.50;100897.44;5068549;28;20064;-47
2022/05/21 04:57:52;;;;;;;0.80;0.20;;;;;;;24.13;34.51;100898.03;5070488;28;20029;-39
2022/05/21 05:00:18;;;;;;;0.77;0.20;;;;;;;24.14;34.64;100894.31;5065669;28;20469;-49
2022/05/21 05:02:43;;;;;;;1.90;0.20;;;;;;;24.15;34.65;100903.94;5068421;28;20124;-41
2022/05/21 05:05:09;;;;;;;2.13;0.38;;;;;;;24.16;34.75;100899.41;5059215;28;20112;-49
2022/05/21 05:07:38;;;;;;;1.48;0.35;;;;;;;24.16;34.51;100910.06;5064601;28;20044;-45
2022/05/21 05:10:04;;;;;;;1.15;0.30;;;;;;;24.15;34.12;100903.94;5067408;28;20391;-48
2022/05/21 05:12:31;;;;;;;1.48;0.20;;;;;;;24.16;34.42;100892.25;5066597;28;20119;-50
2022/05/21 05:14:57;;;;;;;1.02;0.30;;;;;;;24.17;34.14;100887.75;5062616;28;20396;-50
2022/05/21 05:17:24;;;;;;;1.05;0.30;;;;;;;24.17;34.24;100888.56;5064676;28;20036;-53
2022/05/21 05:19:51;;;;;;;0.82;0.20;;;;;;;24.17;34.34;100893.88;5065175;28;20082;-46
2022/05/21 05:22:16;;;;;;;1.30;0.40;;;;;;;24.19;33.97;100890.19;5067461;28;20033;-51
2022/05/21 05:24:42;;;;;;;1.35;0.25;;;;;;;24.19;34.05;100883.00;5066490;28;20032;-45
2022/05/21 05:27:08;;;;;;;2.78;0.22;;;;;;;24.17;33.78;100893.88;5062896;28;20035;-49
2022/05/21 05:29:34;;;;;;;1.55;0.40;;;;;;;24.17;33.85;100885.91;5064249;28;20029;-42
2022/05/21 05:31:59;;;;;;;1.75;0.20;;;;;;;24.17;33.81;100891.22;5065547;28;20043;-49
2022/05/21 05:34:25;;;;;;;1.20;0.20;;;;;;;24.17;34.18;100896.53;5064608;28;20119;-53
2022/05/21 05:36:51;;;;;;;1.83;0.35;;;;;;;24.15;33.47;100895.94;5059710;28;20032;-53
2022/05/21 05:39:17;;;;;;;1.77;0.30;;;;;;;24.10;33.67;100887.03;5068682;28;20033;-44
2022/05/21 05:41:43;;;;;;;1.27;0.40;;;;;;;24.10;33.60;100882.50;5067027;28;20028;-49
2022/05/21 05:44:09;;;;;;;4.30;0.38;;;;;;;24.08;32.81;100873.94;5065976;28;20066;-49
2022/05/21 05:46:35;;;;;;;4.72;0.22;;;;;;;24.04;32.93;100883.41;5057436;28;20029;-47
2022/05/21 05:49:00;;;;;;;3.30;0.30;;;;;;;24.03;33.83;100881.78;5060355;28;20035;-43
2022/05/21 05:51:27;;;;;;;2.05;0.30;;;;;;;24.04;34.55;100887.91;5067628;28;20042;-48
2022/05/21 05:53:53;;;;;;;4.13;0.30;;;;;;;24.04;34.55;100883.41;5067490;28;20115;-46
2022/05/21 05:56:19;;;;;;;4.63;0.20;;;;;;;24.05;34.56;100878.91;5064701;28;20064;-45
2022/05/21 06:01:30;;;;;;;3.03;0.30;;;;;;;24.02;35.83;100880.16;5067446;28;20427;-39
2022/05/21 06:03:56;;;;;;;0.82;0.30;;;;;;;24.05;35.27;100868.25;5068164;28;20025;-41
2022/05/21 06:06:22;;;;;;;3.17;0.30;;;;;;;24.07;35.65;100872.31;5066447;28;20036;-40
2022/05/21 06:08:47;;;;;;;2.47;0.40;;;;;;;24.07;35.21;100874.97;5067687;28;20415;-44
2022/05/21 06:11:15;;;;;;;2.53;0.30;;;;;;;24.07;35.48;100874.97;5066611;28;20039;-46
2022/05/21 06:13:40;;;;;;;3.45;0.38;;;;;;;24.07;35.59;100876.84;5067108;28;20119;-44
2022/05/21 06:16:06;;;;;;;2.58;0.20;;;;;;;24.06;35.26;100870.69;5061861;28;20532;-45
2022/05/21 06:18:31;;;;;;;2.20;0.20;;;;;;;24.07;35.21;100864.34;5064678;28;20029;-42
2022/05/21 06:21:03;;;;;;;2.05;0.20;;;;;;;24.06;35.50;100865.38;5060890;28;20025;-42
2022/05/21 06:23:31;;;;;;;0.65;0.30;;;;;;;24.08;35.24;100868.63;5065888;28;20038;-46
2022/05/21 06:25:59;;;;;;;1.30;0.40;;;;;;;24.07;35.22;100864.34;5065054;28;20028;-46
2022/05/21 06:28:25;;;;;;;2.30;0.30;;;;;;;24.08;35.04;100857.97;5063454;28;20476;-47
2022/05/21 06:30:51;;;;;;;0.63;0.20;;;;;;;24.08;35.60;100851.84;5063689;28;20105;-42
2022/05/21 06:33:19;;;;;;;2.95;0.20;;;;;;;24.09;35.53;100848.97;5064693;28;20033;-43
2022/05/21 06:35:48;;;;;;;1.88;0.35;;;;;;;24.10;35.28;100855.88;5066958;28;20131;-44
2022/05/21 06:38:15;;;;;;;0.95;0.28;;;;;;;24.11;35.42;100846.03;5064271;28;20033;-44
2022/05/21 06:40:41;;;;;;;1.10;0.20;;;;;;;24.12;35.74;100853.00;5067967;28;20040;-41
2022/05/21 06:43:07;;;;;;;0.65;0.20;;;;;;;24.12;35.62;100859.13;5068168;28;20028;-47
2022/05/21 06:45:34;;;;;;;0.93;0.10;;;;;;;24.14;35.91;100861.56;5065135;28;20123;-48
2022/05/21 06:48:05;;;;;;;2.20;0.40;;;;;;;24.13;35.92;100859.94;5061803;28;20028;-46
2022/05/21 06:50:30;;;;;;;2.25;0.30;;;;;;;24.13;35.83;100865.25;5066381;28;20041;-47
2022/05/21 06:52:56;;;;;;;2.25;0.20;;;;;;;24.13;36.09;100863.41;5063616;28;20035;-44
2022/05/21 06:55:22;;;;;;;3.80;0.25;;;;;;;24.11;36.20;100857.50;5062473;28;20028;-40
2022/05/21 06:57:49;;;;;;;2.35;0.20;;;;;;;24.12;35.78;100853.81;5062659;28;20047;-45
2022/05/21 07:00:16;;;;;;;5.28;0.20;;;;;;;24.13;36.04;100859.94;5067193;28;20024;-40
2022/05/21 07:02:41;;;;;;;1.15;0.30;;;;;;;24.12;36.36;100859.13;5064803;28;20492;-50
2022/05/21 07:07:52;;;;;;;0.90;0.30;;;;;;;24.10;36.08;100857.75;5061553;28;20044;-43
2022/05/21 07:10:21;;;;;;;0.80;0.30;;;;;;;24.09;36.43;100862.25;5065391;28;20024;-43
2022/05/21 07:12:48;;;;;;;1.83;0.28;;;;;;;24.08;36.38;100857.97;5066694;28;20029;-43
2022/05/21 07:15:15;;;;;;;1.13;0.20;;;;;;;24.09;36.63;100858.78;5064108;28;20032;-45
2022/05/21 07:17:41;;;;;;;0.77;0.20;;;;;;;24.08;36.38;100857.97;5063526;28;20044;-45
2022/05/21 07:20:10;;;;;;;2.13;0.20;;;;;;;24.08;36.68;100857.97;5066077;28;20016;-46
2022/05/21 07:22:40;;;;;;;2.08;0.20;;;;;;;24.06;36.53;100865.38;5064881;28;20032;-47
2022/05/21 07:25:06;;;;;;;2.03;0.28;;;;;;;24.06;36.90;100861.91;5055258;28;20102;-45
2022/05/21 07:27:31;;;;;;;1.10;0.20;;;;;;;24.04;36.62;100856.78;5066270;28;20079;-41
2022/05/21 07:29:57;;;;;;;2.78;0.35;;;;;;;24.05;36.99;100858.41;5078098;28;20020;-39
2022/05/21 07:32:27;;;;;;;0.73;0.30;;;;;;;24.05;37.09;100863.75;5068440;28;20033;-41
2022/05/21 07:35:15;;;;;;;1.30;0.20;;;;;;;24.05;37.06;100863.75;5080561;28;20020;-44
2022/05/21 07:37:41;;;;;;;2.03;0.40;;;;;;;24.05;37.16;100863.75;5066080;28;20041;-43
2022/05/21 07:40:08;;;;;;;1.38;0.32;;;;;;;24.08;37.73;100867.81;5069477;28;20085;-38
2022/05/21 07:42:35;;;;;;;2.35;0.30;;;;;;;24.07;37.80;100864.34;5070430;28;20376;-43
2022/05/21 07:45:01;;;;;;;6.80;0.55;;;;;;;24.09;37.90;100859.59;5071508;28;20020;-44
2022/05/21 07:47:26;;;;;;;4.25;0.20;;;;;;;24.09;38.02;100864.94;5068297;28;20091;-45
2022/05/21 07:49:57;;;;;;;5.13;0.43;;;;;;;24.10;39.05;100861.19;5061792;28;20507;-43
2022/05/21 07:52:29;;;;;;;4.95;0.63;;;;;;;24.16;39.66;100857.66;5059200;28;20069;-44
2022/05/21 07:54:55;;;;;;;7.57;1.42;;;;;;;24.21;40.48;100861.50;5064474;28;20485;-48
2022/05/21 07:57:21;;;;;;;6.15;1.00;;;;;;;24.20;40.27;100860.66;5055221;28;20074;-42
2022/05/21 07:59:47;;;;;;;4.53;0.88;;;;;;;24.19;40.17;100847.59;5069033;28;20052;-46
2022/05/21 08:02:15;;;;;;;8.00;0.80;;;;;;;24.19;40.17;100847.59;5058547;28;20495;-47
2022/05/21 08:04:42;;;;;;;4.60;0.50;;;;;;;24.17;40.27;100845.97;5063967;28;20040;-42
2022/05/21 08:07:08;;;;;;;4.45;0.60;;;;;;;24.16;40.03;100854.97;5063538;28;20453;-43
2022/05/21 08:09:34;;;;;;;5.80;0.60;;;;;;;24.17;40.17;100850.47;5070524;28;20032;-49
2022/05/21 08:12:00;;;;;;;3.58;0.70;;;;;;;24.17;40.09;100845.97;5069808;28;20086;-40
2022/05/21 08:14:25;;;;;;;2.00;0.30;;;;;;;24.17;40.12;100845.97;5066154;28;20060;-50
2022/05/21 08:16:51;;;;;;;1.90;0.30;;;;;;;24.17;39.76;100850.47;5068231;28;20036;-41
2022/05/21 08:19:16;;;;;;;2.35;0.52;;;;;;;24.19;39.92;100844.94;5067610;28;20060;-46
2022/05/21 08:21:43;;;;;;;2.15;0.35;;;;;;;24.19;39.79;100844.94;5070287;28;20047;-42
2022/05/21 08:26:56;;;;;;;2.00;0.40;;;;;;;24.20;39.98;100836.72;5051898;28;20040;-44
2022/05/21 08:29:35;;;;;;;3.00;0.55;;;;;;;24.18;39.88;100830.81;5069417;28;20125;-44
2022/05/21 08:32:03;;;;;;;4.28;0.38;;;;;;;24.19;39.19;100834.28;5059965;28;20040;-42
2022/05/21 08:34:29;;;;;;;2.78;0.77;;;;;;;24.15;38.69;100842.72;5067003;28;20054;-41
2022/05/21 08:36:55;;;;;;;2.83;0.40;;;;;;;24.13;39.56;100836.78;5067218;28;20032;-44
2022/05/21 08:39:21;;;;;;;6.05;0.60;;;;;;;24.15;39.58;100837.38;5054702;28;20081;-50
2022/05/21 08:41:53;;;;;;;2.60;0.43;;;;;;;24.16;39.57;100823.03;5070550;28;20111;-40
2022/05/21 08:44:50;;;;;;;4.35;0.47;;;;;;;24.11;39.32;100830.88;5065651;28;20151;-48
2022/05/21 08:47:29;;;;;;;6.80;0.50;;;;;;;24.13;39.44;100833.31;5055393;28;20370;-46
2022/05/21 08:50:02;;;;;;;3.15;0.50;;;;;;;24.11;38.64;100833.53;5068957;28;20127;-42
2022/05/21 08:52:51;;;;;;;4.53;0.52;;;;;;;24.09;38.58;100826.84;5067182;28;20130;-42
2022/05/21 08:55:20;;;;;;;3.40;0.30;;;;;;;24.12;38.76;100826.38;5070260;28;20115;-45
2022/05/21 08:58:03;;;;;;;1.80;0.40;;;;;;;24.11;38.46;100822.09;5070630;28;20148;-47
2022/05/21 09:00:40;;;;;;;4.05;0.55;;;;;;;24.13;38.46;100823.50;5061591;28;20036;-42
2022/05/21 09:03:21;;;;;;;1.60;0.45;;;;;;;24.13;38.68;100817.34;5060364;28;20032;-41
2022/05/21 09:06:05;;;;;;;1.10;0.30;;;;;;;24.12;38.14;100808.56;5050237;28;20021;-39
2022/05/21 09:08:49;;;;;;;6.03;0.60;;;;;;;24.11;37.93;100808.78;5052324;28;20040;-41
2022/05/21 09:11:22;;;;;;;3.22;0.50;;;;;;;24.12;38.16;100811.22;5066298;28;20527;-45
2022/05/21 09:14:16;;;;;;;3.38;0.50;;;;;;;24.10;37.25;100809.84;5068835;28;20039;-45
2022/05/21 09:16:56;;;;;;;3.88;0.60;;;;;;;24.11;37.94;100804.25;5068933;28;20071;-42
2022/05/21 09:19:27;;;;;;;2.25;0.40;;;;;;;24.11;37.96;100804.25;5061461;28;20060;-44
2022/05/21 09:22:00;;;;;;;3.10;0.50;;;;;;;24.13;38.05;100807.50;5067410;28;20036;-42
2022/05/21 09:25:03;;;;;;;4.88;0.40;;;;;;;24.15;38.63;100799.31;5068827;28;20032;-49
2022/05/21 09:27:36;;;;;;;3.17;0.40;;;;;;;24.15;38.25;100802.78;5065330;28;20360;-46
2022/05/21 09:30:24;;;;;;;2.13;0.43;;;;;;;24.16;38.40;100796.41;5066664;28;20040;-43
2022/05/21 09:32:53;;;;;;;3.00;0.40;;;;;;;24.16;37.89;100791.09;5068281;28;20033;-48
2022/05/21 09:35:28;;;;;;;2.00;0.57;;;;;;;24.20;37.99;100790.66;5069563;28;20024;-52
2022/05/21 09:37:54;;;;;;;;;;;;;;;24.13;38.28;100796.88;5068545;28;20039;-52
2022/05/21 09:40:23;;;;;;;2.40;0.50;;;;;;;24.15;37.82;100781.47;5066132;28;19920;-45
2022/05/21 09:45:36;;;;;;;2.40;0.30;;;;;;;24.19;38.12;100779.19;5068940;28;20131;-44
2022/05/21 09:48:05;;;;;;;0.68;0.38;;;;;;;24.22;38.12;100767.28;5067028;28;20123;-44
2022/05/21 09:50:51;;;;;;;2.00;0.40;;;;;;;24.24;38.78;100771.34;5062094;28;20036;-46
2022/05/21 09:53:25;;;;;;;;;;;;;;;24.21;38.38;100770.97;5068286;28;20552;-49
2022/05/21 09:56:17;;;;;;;0.95;0.40;;;;;;;24.21;38.80;100758.47;5067667;28;19920;-43
2022/05/21 09:58:44;;;;;;;3.58;0.50;;;;;;;24.26;39.02;100769.28;5061655;28;20148;-45
2022/05/21 10:01:16;;;;;;;2.33;0.50;;;;;;;24.30;39.00;100764.31;5068535;28;20056;-49
2022/05/21 10:03:45;;;;;;;2.00;0.50;;;;;;;24.32;39.00;100764.91;5052051;28;20033;-43
2022/05/21 10:06:32;;;;;;;4.18;0.52;;;;;;;24.32;39.01;100767.56;5051823;28;20028;-48
2022/05/21 10:12:26;;;;;;;3.05;0.80;;;;;;;24.33;39.06;100766.53;5068624;28;20047;-45
2022/05/21 10:15:17;;;;;;;4.10;0.60;;;;;;;24.35;39.20;100757.28;5066212;28;20747;-43
2022/05/21 10:17:47;;;;;;;3.47;0.47;;;;;;;24.37;38.94;100755.19;5067595;28;20032;-43
2022/05/21 10:20:26;;;;;;;3.30;0.45;;;;;;;24.37;39.11;100760.53;5067301;28;20029;-41
2022/05/21 10:23:28;;;;;;;7.28;0.70;;;;;;;24.37;38.98;100751.72;5062859;28;20036;-49
2022/05/21 10:26:19;;;;;;;1.70;0.43;;;;;;;24.38;39.21;100750.69;5053444;28;20033;-47
2022/05/21 10:28:57;;;;;;;1.23;0.50;;;;;;;24.41;39.51;100755.56;5067933;28;20128;-48
2022/05/21 10:31:37;;;;;;;3.42;0.50;;;;;;;24.42;39.72;100762.50;5067584;28;20052;-49
2022/05/21 10:34:22;;;;;;;5.65;0.60;;;;;;;24.43;39.93;100750.81;5066739;28;20064;-46
2022/05/21 10:36:55;;;;;;;3.13;0.52;;;;;;;24.43;40.19;100759.63;5062589;28;20032;-41
2022/05/21 10:39:46;;;;;;;2.65;0.50;;;;;;;24.46;40.84;100743.19;5068908;28;20111;-53
2022/05/21 10:42:23;;;;;;;6.05;0.60;;;;;;;24.47;40.68;100746.66;5058942;28;20093;-42
2022/05/21 10:45:22;;;;;;;6.72;0.60;;;;;;;24.47;40.83;100750.13;5067532;28;20032;-46
2022/05/21 10:47:54;;;;;;;1.42;0.50;;;;;;;24.50;40.52;100754.19;5068015;28;20025;-44
2022/05/21 10:50:27;;;;;;;8.10;0.55;;;;;;;24.53;40.02;100744.94;5067944;28;20115;-46
2022/05/21 10:53:27;;;;;;;1.85;0.40;;;;;;;24.51;39.72;100734.50;5062251;28;20432;-44
2022/05/21 10:56:26;;;;;;;4.07;0.50;;;;;;;24.51;39.74;100742.50;5051750;28;20063;-43
2022/05/21 10:59:06;;;;;;;1.60;0.40;;;;;;;24.52;39.65;100730.81;5068214;28;20071;-45
2022/05/21 11:01:45;;;;;;;2.03;0.65;;;;;;;24.58;39.44;100737.03;5066111;28;20056;-43
2022/05/21 11:04:25;;;;;;;6.13;0.50;;;;;;;24.59;38.97;100734.16;5061183;28;20143;-44
2022/05/21 11:07:15;;;;;;;3.50;0.77;;;;;;;24.60;38.11;100727.78;5054046;28;20024;-48
2022/05/21 11:09:52;;;;;;;3.45;0.52;;;;;;;24.59;38.21;100731.47;5067234;28;20504;-44
2022/05/21 11:12:44;;;;;;;3.28;0.68;;;;;;;24.58;38.36;100724.53;5069449;28;20392;-46
2022/05/21 11:15:29;;;;;;;3.00;0.60;;;;;;;24.62;38.55;100727.53;5070867;28;20024;-46
2022/05/21 11:17:59;;;;;;;5.40;0.60;;;;;;;24.61;38.63;100726.75;5069135;28;20139;-43
2022/05/21 11:20:36;;;;;;;4.38;0.63;;;;;;;24.67;38.17;100719.69;5067519;28;20040;-42
2022/05/21 11:23:28;;;;;;;4.45;0.50;;;;;;;24.75;37.92;100725.47;5058883;28;20454;-41
2022/05/21 11:26:04;;;;;;;3.25;0.60;;;;;;;24.75;38.23;100714.00;5058828;28;20036;-40
2022/05/21 11:28:49;;;;;;;3.60;0.70;;;;;;;24.76;38.64;100718.28;5074491;28;20032;-42
2022/05/21 11:37:21;;;;;;;3.05;0.63;;;;;;;24.84;38.46;100709.97;5037593;22;20064;-68
2022/05/21 11:39:51;;;;;;;1.48;0.43;;;;;;;24.83;38.57;100710.19;5027741;28;20033;-71
2022/05/21 11:42:36;;;;;;;2.58;0.70;;;;;;;24.76;39.27;100702.31;5031373;28;20512;-68
2022/05/21 11:45:08;;;;;;;5.65;0.77;;;;;;;24.80;39.11;100709.59;5027913;28;20524;-68
2022/05/21 11:47:46;;;;;;;2.15;0.68;;;;;;;24.84;38.87;100706.47;5030274;28;20449;-69
2022/05/21 11:50:17;;;;;;;1.23;0.60;;;;;;;24.82;39.29;100696.06;5028727;28;20044;-70
2022/05/21 11:52:51;;;;;;;3.30;0.65;;;;;;;24.81;39.10;100691.78;5031344;28;20036;-71
2022/05/21 11:55:25;;;;;;;2.63;0.70;;;;;;;24.87;39.01;100690.03;5031389;28;20034;-70
2022/05/21 11:57:50;;;;;;;2.28;0.77;;;;;;;24.90;39.11;100682.38;5030852;28;20064;-70
2022/05/21 12:00:18;;;;;;;2.60;0.75;;;;;;;24.92;39.11;100682.16;5029138;28;20450;-69
2022/05/21 12:03:05;;;;;;;3.50;0.50;;;;;;;24.95;40.69;100681.69;5029286;28;20029;-70
2022/05/21 12:05:37;;;;;;;3.83;0.50;;;;;;;25.12;39.74;100680.75;5025619;28;20056;-69
2022/05/21 12:08:27;;;;;;;3.38;0.60;;;;;;;25.24;39.43;100675.38;5028880;28;20033;-68
2022/05/21 12:10:55;;;;;;;5.03;1.67;;;;;;;25.36;40.40;100672.69;5023707;28;20036;-70